CN-0183 weather

Zhangzhou/Chang-Chou Airfield
Fujian Province, China

Public forecast

Using degrees Celsius for public forecast. Weather courtesy of forecast.io.

Closest aviation weather report (METAR) to Zhangzhou/Chang-Chou Airfield

Closest report is Xiamen Gaoqi International Airport, 25.9 nm (48.0 km) E. Retrieved 2020/05/26 20:00 UTC (22 minutes ago):

ZSAM 262000Z 05003MPS 4000 BR FEW010 25/25 Q1007 NOSIG

Closest aviation forecast (TAF) to Zhangzhou/Chang-Chou Airfield

Closest forecast is Xiamen Gaoqi International Airport, 25.9 nm (48.0 km) E. Retrieved 2020/05/26 18:00 UTC (2 hours ago):

TAF ZSAM 261512Z 2618/2718 08004G09MPS 5000 BR SCT016 BKN033 TX30/2706Z TN25/2621Z TEMPO 2622/2704 -TSRA BKN005 FEW020CB OVC033 TEMPO 2705/2711 SHRA FEW023CB BKN025